Time;durP1;ratioP1;P1;durP2;ratioP2;P2;SDS_P1;SDS_P2;PMS_P1;PMS_P2;Temp;Humidity;BMP_temperature;BMP_pressure;BME280_temperature;BME280_humidity;BME280_pressure;Samples;Min_cycle;Max_cycle;Signal;HPM_P1;HPM_P2
2022/05/28 00:01:35;;;;;;;4.22;0.93;;;10.70;99.90;;;;;;4994839;28;20490;-75
2022/05/28 00:04:04;;;;;;;4.03;0.60;;;11.00;99.90;;;;;;4993665;28;20056;-74
2022/05/28 00:06:32;;;;;;;5.20;0.60;;;10.70;99.90;;;;;;4994856;28;20042;-73
2022/05/28 00:09:01;;;;;;;5.57;0.70;;;11.10;99.90;;;;;;4993992;28;20050;-74
2022/05/28 00:11:31;;;;;;;5.25;0.77;;;10.60;99.90;;;;;;4994679;28;20129;-74
2022/05/28 00:13:57;;;;;;;6.00;0.70;;;10.60;99.90;;;;;;4994377;28;20096;-74
2022/05/28 00:16:22;;;;;;;9.05;0.70;;;10.70;99.90;;;;;;4977710;28;20050;-74
2022/05/28 00:18:51;;;;;;;4.03;0.80;;;10.60;99.90;;;;;;4994679;28;20584;-75
2022/05/28 00:21:18;;;;;;;3.65;1.10;;;10.80;99.90;;;;;;4993337;28;20101;-74
2022/05/28 00:23:45;;;;;;;6.60;0.80;;;10.50;99.90;;;;;;4993417;28;20133;-80
2022/05/28 00:26:11;;;;;;;3.88;0.60;;;10.70;99.90;;;;;;4994561;28;20077;-74
2022/05/28 00:28:37;;;;;;;5.63;0.70;;;10.70;99.90;;;;;;4994551;28;20050;-75
2022/05/28 00:31:03;;;;;;;5.00;0.63;;;10.50;99.90;;;;;;4994390;28;20054;-74
2022/05/28 00:33:30;;;;;;;5.78;0.60;;;10.40;99.90;;;;;;4993733;28;20089;-73
2022/05/28 00:35:57;;;;;;;4.15;0.70;;;10.70;99.90;;;;;;4994625;28;20050;-75
2022/05/28 00:38:24;;;;;;;5.72;0.60;;;10.40;99.90;;;;;;4993673;28;20081;-74
2022/05/28 00:40:53;;;;;;;3.67;0.70;;;10.50;99.90;;;;;;4994316;28;20097;-76
2022/05/28 00:43:19;;;;;;;4.28;0.77;;;10.30;99.90;;;;;;4992996;28;20130;-73
2022/05/28 00:45:47;;;;;;;4.00;0.60;;;10.30;99.90;;;;;;4994346;28;20055;-75
2022/05/28 00:48:15;;;;;;;5.78;0.68;;;10.20;99.90;;;;;;4994274;28;20046;-74
2022/05/28 00:50:42;;;;;;;5.32;0.75;;;10.30;99.90;;;;;;4994214;28;20406;-73
2022/05/28 00:53:08;;;;;;;6.97;0.90;;;10.20;99.90;;;;;;4994167;28;20172;-74
2022/05/28 00:55:35;;;;;;;6.10;0.75;;;10.20;99.90;;;;;;4994137;28;20038;-75
2022/05/28 00:58:07;;;;;;;6.22;0.82;;;10.20;99.90;;;;;;4993898;28;20406;-73
2022/05/28 01:00:34;;;;;;;4.50;1.30;;;10.10;99.90;;;;;;4994157;28;20093;-76
2022/05/28 01:03:12;;;;;;;5.32;0.60;;;10.10;99.90;;;;;;4992538;28;20486;-73
2022/05/28 01:05:50;;;;;;;5.10;1.00;;;10.30;99.90;;;;;;4994618;28;20053;-74
2022/05/28 01:08:28;;;;;;;3.35;0.65;;;10.10;99.90;;;;;;4994101;28;20046;-73
2022/05/28 01:11:30;;;;;;;7.15;0.90;;;10.00;99.90;;;;;;4994797;28;20109;-73
2022/05/28 01:14:15;;;;;;;4.28;0.60;;;10.00;99.90;;;;;;4993020;28;20050;-73
2022/05/28 01:16:43;;;;;;;3.58;0.75;;;10.00;99.90;;;;;;4994785;28;20049;-76
2022/05/28 01:19:26;;;;;;;6.13;0.70;;;10.00;99.90;;;;;;4993919;28;20042;-73
2022/05/28 01:22:07;;;;;;;6.88;0.80;;;10.00;99.90;;;;;;4993710;28;20420;-74
2022/05/28 01:24:45;;;;;;;4.43;0.95;;;10.00;99.90;;;;;;4992594;28;20057;-74
2022/05/28 01:27:22;;;;;;;4.15;0.60;;;10.00;99.90;;;;;;4993714;28;20047;-81
2022/05/28 01:29:51;;;;;;;6.32;0.80;;;10.20;99.90;;;;;;4993880;28;20125;-81
2022/05/28 01:32:19;;;;;;;3.70;0.80;;;9.90;99.90;;;;;;4994141;28;20112;-75
2022/05/28 01:34:46;;;;;;;5.80;0.85;;;10.20;99.90;;;;;;4993842;28;20057;-74
2022/05/28 01:37:13;;;;;;;5.68;0.68;;;10.00;99.90;;;;;;4993792;28;20050;-76
2022/05/28 01:39:42;;;;;;;5.18;0.82;;;10.10;99.90;;;;;;4992221;28;20534;-74
2022/05/28 01:42:10;;;;;;;6.47;0.75;;;10.00;99.90;;;;;;4992567;28;20046;-81
2022/05/28 01:44:39;;;;;;;4.72;0.80;;;10.20;99.90;;;;;;4994220;28;20049;-74
2022/05/28 01:47:05;;;;;;;8.93;1.13;;;10.40;99.90;;;;;;4993659;28;20054;-76
2022/05/28 01:49:33;;;;;;;5.13;0.75;;;10.00;99.90;;;;;;4992660;28;20046;-78
2022/05/28 01:52:02;;;;;;;5.75;0.88;;;10.30;99.90;;;;;;4992503;28;20049;-73
2022/05/28 01:54:33;;;;;;;5.32;0.80;;;10.00;99.90;;;;;;4977212;28;20197;-74
2022/05/28 01:56:59;;;;;;;3.90;0.73;;;10.00;99.90;;;;;;4993323;28;20487;-74
2022/05/28 01:59:28;;;;;;;5.78;0.90;;;10.10;99.90;;;;;;4993409;28;20052;-73
2022/05/28 02:01:56;;;;;;;6.63;0.80;;;10.30;99.90;;;;;;4993809;28;20426;-73
2022/05/28 02:04:22;;;;;;;6.55;0.88;;;10.00;99.90;;;;;;4995616;28;20045;-73
2022/05/28 02:06:48;;;;;;;3.97;0.75;;;10.00;99.90;;;;;;4997036;28;20051;-74
2022/05/28 02:09:21;;;;;;;6.32;0.90;;;10.30;99.90;;;;;;4997732;28;20054;-78
2022/05/28 02:11:47;;;;;;;;;;;10.20;99.90;;;;;;4997259;28;20050;-75
2022/05/28 02:14:51;;;;;;;7.15;1.48;;;10.10;99.90;;;;;;5012294;28;19944;-77
2022/05/28 02:17:27;;;;;;;5.30;1.15;;;10.30;99.90;;;;;;4985724;28;20062;-74
2022/05/28 02:19:55;;;;;;;7.50;0.82;;;10.10;99.90;;;;;;4996748;28;20058;-73
2022/05/28 02:22:52;;;;;;;7.00;0.80;;;10.10;99.90;;;;;;4996707;28;20042;-76
2022/05/28 02:25:47;;;;;;;5.80;1.23;;;10.00;99.90;;;;;;4979846;28;20061;-75
2022/05/28 02:28:14;;;;;;;6.93;0.90;;;10.10;99.90;;;;;;4988131;28;20101;-74
2022/05/28 02:30:53;;;;;;;4.57;0.90;;;10.00;99.90;;;;;;4996623;28;20054;-72
2022/05/28 02:33:20;;;;;;;6.82;0.90;;;10.20;99.90;;;;;;4995928;28;20161;-74
2022/05/28 02:35:46;;;;;;;8.25;0.93;;;10.20;99.90;;;;;;4996569;28;20053;-74
2022/05/28 02:38:14;;;;;;;7.28;0.80;;;10.10;99.90;;;;;;4996518;28;20081;-73
2022/05/28 02:40:40;;;;;;;8.73;1.10;;;10.20;99.90;;;;;;4996639;28;20058;-73
2022/05/28 02:43:06;;;;;;;6.30;1.15;;;10.00;99.90;;;;;;4996823;28;20478;-75
2022/05/28 02:45:32;;;;;;;8.00;1.00;;;9.90;99.90;;;;;;4963486;28;20364;-74
2022/05/28 02:47:58;;;;;;;4.53;1.00;;;10.00;99.90;;;;;;4996363;28;20046;-72
2022/05/28 02:50:27;;;;;;;9.38;1.08;;;10.00;99.90;;;;;;4995358;28;20050;-74
2022/05/28 02:52:55;;;;;;;9.15;1.63;;;9.90;99.90;;;;;;4995247;28;20054;-72
2022/05/28 02:55:20;;;;;;;5.18;1.23;;;10.10;99.90;;;;;;4996408;28;20078;-72
2022/05/28 02:57:46;;;;;;;6.25;1.15;;;9.90;99.90;;;;;;4995424;28;20443;-71
2022/05/28 03:00:14;;;;;;;6.53;0.85;;;10.20;99.90;;;;;;4996109;28;20153;-71
2022/05/28 03:02:41;;;;;;;8.20;1.23;;;9.90;99.90;;;;;;4995660;28;20057;-72
2022/05/28 03:05:07;;;;;;;6.18;0.90;;;10.10;99.90;;;;;;4995945;28;20062;-72
2022/05/28 03:07:33;;;;;;;12.55;1.20;;;10.00;99.90;;;;;;4994722;28;20057;-73
2022/05/28 03:09:59;;;;;;;8.32;1.30;;;9.80;99.90;;;;;;4995879;28;20096;-74
2022/05/28 03:12:24;;;;;;;7.32;1.08;;;9.80;99.90;;;;;;4978454;28;20046;-79
2022/05/28 03:14:50;;;;;;;10.05;1.40;;;9.80;99.90;;;;;;4995854;28;20394;-73
2022/05/28 03:17:16;;;;;;;6.40;1.02;;;10.00;99.90;;;;;;4994595;28;20109;-74
2022/05/28 03:19:41;;;;;;;5.88;1.20;;;10.10;99.90;;;;;;4994502;28;20058;-73
2022/05/28 03:22:07;;;;;;;8.98;1.52;;;9.70;99.90;;;;;;4995574;28;20042;-84
2022/05/28 03:24:33;;;;;;;8.88;1.13;;;9.70;99.90;;;;;;4995645;28;20042;-77
2022/05/28 03:26:59;;;;;;;6.47;1.00;;;10.00;99.90;;;;;;4978552;28;20152;-73
2022/05/28 03:29:25;;;;;;;9.07;1.25;;;9.90;99.90;;;;;;4995574;28;20050;-73
2022/05/28 03:31:51;;;;;;;7.40;1.13;;;10.10;99.90;;;;;;4995404;28;20061;-74
2022/05/28 03:34:17;;;;;;;8.02;1.20;;;9.60;99.90;;;;;;4994348;28;20050;-75
2022/05/28 03:36:43;;;;;;;7.70;0.80;;;9.80;99.90;;;;;;4994672;28;20049;-74
2022/05/28 03:39:09;;;;;;;4.30;1.55;;;9.70;99.90;;;;;;4994068;28;20068;-75
2022/05/28 03:41:35;;;;;;;5.90;1.00;;;10.10;99.90;;;;;;4978535;28;20050;-73
2022/05/28 03:44:01;;;;;;;7.00;1.05;;;9.60;99.90;;;;;;4995236;28;20077;-73
2022/05/28 03:46:29;;;;;;;5.78;1.00;;;9.70;99.90;;;;;;4993928;28;20084;-73
2022/05/28 03:49:05;;;;;;;7.63;1.00;;;10.00;99.90;;;;;;4995210;28;20049;-76
2022/05/28 03:51:30;;;;;;;6.65;1.33;;;9.60;99.90;;;;;;4995163;28;20046;-73
2022/05/28 03:53:57;;;;;;;4.85;0.90;;;9.60;99.90;;;;;;4995010;28;20532;-73
2022/05/28 03:56:26;;;;;;;6.15;1.65;;;9.60;99.90;;;;;;4994919;28;20133;-73
2022/05/28 03:58:52;;;;;;;8.07;1.08;;;10.30;99.90;;;;;;4995021;28;20042;-73
2022/05/28 04:01:18;;;;;;;7.35;1.02;;;10.00;99.90;;;;;;4994951;28;20057;-73
2022/05/28 04:03:44;;;;;;;5.85;1.13;;;9.90;99.90;;;;;;4993950;28;20050;-78
2022/05/28 04:06:10;;;;;;;7.00;1.30;;;10.10;99.90;;;;;;4977659;28;20050;-73
2022/05/28 04:08:36;;;;;;;8.90;1.25;;;9.70;99.90;;;;;;4977970;28;20056;-72
2022/05/28 04:11:02;;;;;;;5.38;1.25;;;9.80;99.90;;;;;;4993798;28;20518;-75
2022/05/28 04:13:27;;;;;;;9.00;1.25;;;10.10;99.90;;;;;;4993535;28;20449;-74
2022/05/28 04:15:53;;;;;;;10.70;0.90;;;9.80;99.90;;;;;;4994022;28;20042;-73
2022/05/28 04:18:19;;;;;;;7.18;0.90;;;10.10;99.90;;;;;;4994368;28;20042;-74
2022/05/28 04:20:44;;;;;;;6.20;0.90;;;9.90;99.90;;;;;;4993692;28;20054;-74
2022/05/28 04:23:10;;;;;;;5.85;1.02;;;10.20;99.90;;;;;;4994233;28;20042;-74
2022/05/28 04:25:36;;;;;;;6.82;1.20;;;10.00;99.90;;;;;;4992904;28;20065;-73
2022/05/28 04:28:02;;;;;;;6.38;1.20;;;10.40;99.90;;;;;;4994749;28;20553;-72
2022/05/28 04:30:28;;;;;;;6.30;1.00;;;10.10;99.90;;;;;;4994690;28;20042;-74
2022/05/28 04:32:53;;;;;;;11.25;1.30;;;10.20;99.90;;;;;;4961414;28;20133;-73
2022/05/28 04:35:19;;;;;;;4.60;1.00;;;10.50;99.90;;;;;;4993274;28;20073;-76
2022/05/28 04:37:45;;;;;;;6.75;1.40;;;10.20;99.90;;;;;;4994420;28;20046;-74
2022/05/28 04:40:11;;;;;;;8.18;0.95;;;10.30;99.90;;;;;;4994746;28;20483;-74
2022/05/28 04:42:37;;;;;;;6.25;0.95;;;10.50;99.90;;;;;;4993092;28;20141;-78
2022/05/28 04:45:03;;;;;;;8.10;1.52;;;10.40;99.90;;;;;;4993099;28;20181;-70
2022/05/28 04:47:30;;;;;;;6.10;0.93;;;10.40;99.90;;;;;;4993313;28;20085;-74
2022/05/28 04:49:55;;;;;;;3.95;0.70;;;10.40;99.90;;;;;;4994167;28;20050;-71
2022/05/28 04:52:21;;;;;;;3.28;0.63;;;10.90;99.90;;;;;;4993509;28;20048;-71
2022/05/28 04:54:48;;;;;;;4.93;0.75;;;10.30;99.90;;;;;;4994119;28;20061;-79
2022/05/28 04:57:14;;;;;;;3.97;0.70;;;10.50;99.90;;;;;;4993483;28;20042;-72
2022/05/28 04:59:39;;;;;;;5.85;0.80;;;10.20;99.90;;;;;;4993208;28;20077;-73
2022/05/28 05:02:07;;;;;;;3.72;0.80;;;10.20;99.90;;;;;;4994049;28;20081;-71
2022/05/28 05:04:32;;;;;;;3.25;0.70;;;10.60;99.90;;;;;;4993174;28;20435;-70
2022/05/28 05:06:58;;;;;;;3.92;0.80;;;10.20;99.90;;;;;;4994084;28;20128;-73
2022/05/28 05:09:24;;;;;;;5.72;0.80;;;10.40;99.90;;;;;;4992803;28;20046;-78
2022/05/28 05:11:49;;;;;;;5.75;0.88;;;10.30;99.90;;;;;;4977118;28;20077;-72
2022/05/28 05:14:15;;;;;;;6.78;1.25;;;10.60;99.90;;;;;;4961133;28;20471;-71
2022/05/28 05:16:41;;;;;;;4.68;1.35;;;10.30;99.90;;;;;;4994000;28;20086;-72
2022/05/28 05:19:07;;;;;;;7.18;1.48;;;10.40;99.90;;;;;;4994001;28;20090;-71
2022/05/28 05:21:33;;;;;;;10.27;1.48;;;10.80;99.90;;;;;;4993759;28;20065;-73
2022/05/28 05:23:58;;;;;;;5.90;1.10;;;10.70;99.90;;;;;;4993867;28;20100;-72
2022/05/28 05:26:24;;;;;;;8.65;1.30;;;10.80;99.90;;;;;;4993310;28;20055;-71
2022/05/28 05:28:50;;;;;;;8.05;1.02;;;11.00;99.90;;;;;;4994435;28;20046;-71
2022/05/28 05:31:17;;;;;;;10.80;1.83;;;11.00;99.90;;;;;;4993608;28;20288;-77
2022/05/28 05:33:43;;;;;;;6.78;1.20;;;10.90;99.90;;;;;;4992972;28;20455;-76
2022/05/28 05:36:09;;;;;;;6.47;1.23;;;10.90;99.90;;;;;;4994485;28;20050;-74
2022/05/28 05:38:36;;;;;;;14.20;2.75;;;11.00;99.90;;;;;;4996323;28;20054;-73
2022/05/28 05:41:02;;;;;;;5.50;1.38;;;11.40;99.90;;;;;;4997889;28;20065;-73
2022/05/28 05:43:27;;;;;;;6.90;1.30;;;11.00;99.90;;;;;;4997407;28;20046;-74
2022/05/28 05:45:56;;;;;;;10.85;1.75;;;11.40;99.90;;;;;;4996248;28;20046;-73
2022/05/28 05:48:23;;;;;;;9.45;1.35;;;11.10;99.90;;;;;;4996229;28;20124;-77
2022/05/28 05:50:49;;;;;;;6.57;1.25;;;11.20;99.90;;;;;;4997201;28;20450;-73
2022/05/28 05:53:15;;;;;;;10.48;1.20;;;11.20;99.90;;;;;;4997517;28;20042;-74
2022/05/28 05:55:42;;;;;;;10.48;1.77;;;11.30;99.90;;;;;;4996584;28;20055;-76
2022/05/28 05:58:08;;;;;;;10.10;1.40;;;11.40;99.90;;;;;;4997173;28;20042;-78
2022/05/28 06:00:34;;;;;;;10.13;2.33;;;11.40;99.90;;;;;;4963695;28;20089;-75
2022/05/28 06:02:59;;;;;;;11.20;1.15;;;11.70;99.90;;;;;;4996245;28;20085;-72
2022/05/28 06:05:25;;;;;;;6.35;1.20;;;11.50;99.90;;;;;;4980208;28;20086;-73
2022/05/28 06:07:51;;;;;;;9.65;1.30;;;11.60;99.90;;;;;;4979754;28;20050;-74
2022/05/28 06:10:16;;;;;;;10.13;1.23;;;11.50;99.90;;;;;;4979768;28;20056;-79
2022/05/28 06:12:42;;;;;;;6.05;1.00;;;11.50;99.90;;;;;;4995840;28;20050;-74
2022/05/28 06:15:09;;;;;;;3.13;0.90;;;11.40;99.90;;;;;;4979824;28;20162;-73
2022/05/28 06:17:35;;;;;;;8.60;1.05;;;11.50;99.90;;;;;;4995980;28;20077;-75
2022/05/28 06:20:04;;;;;;;9.57;1.23;;;11.50;99.90;;;;;;4979546;28;20486;-74
2022/05/28 06:22:30;;;;;;;5.55;1.00;;;11.50;99.90;;;;;;4995606;28;20483;-74
2022/05/28 06:24:55;;;;;;;5.15;0.98;;;11.60;99.90;;;;;;4997081;28;20053;-73
2022/05/28 06:27:22;;;;;;;7.05;1.00;;;11.60;99.90;;;;;;4997231;28;20527;-73
2022/05/28 06:29:47;;;;;;;7.30;1.25;;;11.90;99.90;;;;;;4996953;28;20442;-74
2022/05/28 06:32:13;;;;;;;7.65;1.15;;;11.80;99.90;;;;;;4995971;28;20042;-73
2022/05/28 06:34:39;;;;;;;7.80;1.30;;;11.90;99.90;;;;;;4979835;28;20129;-74
2022/05/28 06:37:09;;;;;;;11.93;1.35;;;12.00;99.90;;;;;;4995423;28;20109;-74
2022/05/28 06:39:36;;;;;;;7.72;1.25;;;12.00;99.90;;;;;;4996322;28;20069;-76
2022/05/28 06:42:03;;;;;;;8.05;1.50;;;12.00;99.90;;;;;;4996384;28;20054;-73
2022/05/28 06:44:29;;;;;;;6.50;1.20;;;12.00;99.90;;;;;;4996408;28;20081;-77
2022/05/28 06:46:55;;;;;;;9.07;1.10;;;12.00;99.90;;;;;;4994673;28;20085;-73
2022/05/28 06:49:20;;;;;;;5.75;1.20;;;12.10;99.90;;;;;;4997133;28;20423;-73
2022/05/28 06:51:47;;;;;;;6.85;1.00;;;12.20;99.90;;;;;;4997051;28;20085;-73
2022/05/28 06:54:13;;;;;;;7.13;1.50;;;12.30;99.90;;;;;;4979172;28;20054;-80
2022/05/28 06:56:39;;;;;;;5.78;1.25;;;12.60;99.90;;;;;;4979821;28;20058;-73
2022/05/28 06:59:04;;;;;;;7.25;1.10;;;12.40;99.90;;;;;;4995239;28;20090;-79
2022/05/28 07:01:30;;;;;;;8.90;1.75;;;12.30;99.90;;;;;;4994810;28;20092;-83
2022/05/28 07:03:56;;;;;;;9.32;1.75;;;12.30;99.90;;;;;;4995946;28;20052;-83
2022/05/28 07:06:22;;;;;;;10.02;1.65;;;12.50;99.90;;;;;;4995096;28;20475;-74
2022/05/28 07:08:48;;;;;;;9.07;1.60;;;12.30;99.90;;;;;;4995972;28;20133;-76
2022/05/28 07:11:14;;;;;;;8.88;1.05;;;12.30;99.90;;;;;;4978622;28;20042;-78
2022/05/28 07:13:41;;;;;;;10.82;1.23;;;12.40;99.90;;;;;;4995691;28;20057;-76
2022/05/28 07:16:08;;;;;;;7.78;1.08;;;12.70;99.90;;;;;;4996245;28;20360;-84
2022/05/28 07:18:38;;;;;;;8.80;1.35;;;12.50;99.90;;;;;;4994548;28;20392;-74
2022/05/28 07:21:05;;;;;;;4.78;0.95;;;12.60;99.90;;;;;;4995410;28;20476;-75
2022/05/28 07:23:32;;;;;;;7.75;1.10;;;12.60;99.90;;;;;;4995532;28;20125;-82
2022/05/28 07:26:12;;;;;;;4.70;1.08;;;12.70;99.90;;;;;;4995620;28;20439;-81
2022/05/28 07:28:39;;;;;;;8.85;1.15;;;12.70;99.90;;;;;;4995797;28;20105;-79
2022/05/28 07:31:23;;;;;;;6.05;1.00;;;12.70;99.90;;;;;;4978330;28;20050;-77
2022/05/28 07:33:49;;;;;;;8.57;1.27;;;12.70;99.90;;;;;;4995633;28;20541;-79
2022/05/28 07:36:19;;;;;;;5.18;1.40;;;12.60;99.90;;;;;;4978494;28;20046;-79
2022/05/28 07:38:45;;;;;;;8.18;1.65;;;12.60;99.90;;;;;;4994303;28;20493;-73
2022/05/28 07:41:17;;;;;;;4.53;1.20;;;12.50;99.90;;;;;;4978188;28;20105;-74
2022/05/28 07:43:43;;;;;;;11.32;1.67;;;12.50;99.90;;;;;;4994696;28;20047;-77
2022/05/28 07:46:17;;;;;;;5.22;1.30;;;12.50;99.90;;;;;;4994980;28;20054;-71
2022/05/28 07:48:43;;;;;;;9.50;1.50;;;12.50;99.90;;;;;;4996430;28;20038;-73
2022/05/28 07:51:10;;;;;;;9.73;1.10;;;12.50;99.90;;;;;;4977259;28;20060;-71
2022/05/28 07:53:36;;;;;;;7.38;1.20;;;12.50;99.90;;;;;;4993722;28;20451;-72
2022/05/28 07:56:05;;;;;;;7.15;1.10;;;12.60;99.90;;;;;;4978327;28;20415;-72
2022/05/28 07:58:31;;;;;;;6.03;1.10;;;12.50;99.90;;;;;;4993067;28;20053;-73
2022/05/28 08:00:57;;;;;;;13.30;1.40;;;12.70;99.90;;;;;;4993487;28;20051;-75
2022/05/28 08:03:23;;;;;;;7.22;1.20;;;12.90;99.90;;;;;;4994193;28;20052;-80
2022/05/28 08:05:51;;;;;;;11.32;1.30;;;12.90;99.90;;;;;;4994274;28;20180;-77
2022/05/28 08:08:19;;;;;;;10.68;1.23;;;13.00;99.90;;;;;;4993182;28;20109;-75
2022/05/28 08:10:45;;;;;;;8.48;1.52;;;12.90;99.90;;;;;;4993263;28;20050;-76
2022/05/28 08:13:14;;;;;;;6.43;1.27;;;12.90;99.90;;;;;;4977357;28;20092;-80
2022/05/28 08:15:42;;;;;;;6.70;1.00;;;13.00;99.90;;;;;;4993025;28;20539;-76
2022/05/28 08:18:09;;;;;;;6.97;1.05;;;12.80;99.90;;;;;;4993285;28;20046;-84
2022/05/28 08:23:19;;;;;;;8.13;1.17;;;12.70;99.90;;;;;;4992826;28;20137;-74
2022/05/28 08:25:47;;;;;;;8.27;1.30;;;12.80;99.90;;;;;;4994350;28;20125;-74
2022/05/28 08:28:14;;;;;;;8.65;1.40;;;12.80;99.90;;;;;;4976749;28;20054;-73
2022/05/28 08:30:39;;;;;;;7.78;0.88;;;13.20;99.90;;;;;;4993720;28;20042;-81
2022/05/28 08:33:07;;;;;;;7.25;1.00;;;13.00;99.90;;;;;;4993481;28;20038;-80
2022/05/28 08:35:34;;;;;;;7.18;0.90;;;13.00;99.90;;;;;;4995114;28;20082;-79
2022/05/28 08:38:08;;;;;;;4.07;0.90;;;13.00;99.90;;;;;;4994326;28;20394;-76
2022/05/28 08:40:42;;;;;;;7.57;1.00;;;13.10;99.90;;;;;;4992679;28;20108;-77
2022/05/28 08:43:08;;;;;;;11.80;1.50;;;13.20;99.90;;;;;;4993361;28;20371;-73
2022/05/28 08:45:35;;;;;;;7.75;1.23;;;13.20;99.90;;;;;;4992488;28;20058;-75
2022/05/28 08:48:02;;;;;;;9.23;1.20;;;13.30;99.90;;;;;;4992799;28;20046;-74
2022/05/28 08:50:29;;;;;;;7.88;1.25;;;13.50;99.90;;;;;;4992525;28;20047;-72
2022/05/28 08:52:58;;;;;;;6.53;1.00;;;13.40;99.90;;;;;;4992616;28;20121;-74
2022/05/28 08:55:26;;;;;;;6.93;1.10;;;13.40;99.90;;;;;;4977242;28;20054;-76
2022/05/28 08:58:12;;;;;;;5.68;0.63;;;13.40;99.90;;;;;;4975964;28;20113;-81
2022/05/28 09:00:45;;;;;;;5.13;0.88;;;13.40;99.90;;;;;;4992963;28;20384;-82
2022/05/28 09:03:42;;;;;;;6.07;1.10;;;13.50;99.90;;;;;;4993571;28;20038;-78
2022/05/28 09:06:12;;;;;;;5.40;1.00;;;13.60;99.90;;;;;;4971355;28;20066;-81
2022/05/28 09:08:42;;;;;;;5.57;0.70;;;13.70;99.90;;;;;;4992842;28;20066;-83
2022/05/28 09:11:19;;;;;;;7.85;0.90;;;13.60;99.90;;;;;;4996642;28;20047;-84
2022/05/28 09:13:51;;;;;;;7.97;1.30;;;13.50;99.90;;;;;;4997001;28;20134;-75
2022/05/28 09:16:36;;;;;;;6.25;0.73;;;13.50;99.90;;;;;;4998407;28;20046;-77
2022/05/28 09:19:06;;;;;;;4.90;0.98;;;13.50;99.90;;;;;;4997434;28;20156;-77
2022/05/28 09:21:32;;;;;;;3.22;0.70;;;13.50;99.90;;;;;;4995823;28;20402;-79
2022/05/28 09:24:16;;;;;;;4.22;0.88;;;13.50;99.90;;;;;;4997498;28;20105;-71
2022/05/28 09:27:17;;;;;;;5.60;0.60;;;13.60;99.90;;;;;;4997909;28;20086;-72
2022/05/28 09:30:01;;;;;;;5.50;0.70;;;13.60;99.90;;;;;;4997899;28;20418;-75
2022/05/28 09:33:01;;;;;;;5.05;1.10;;;13.60;99.90;;;;;;4996952;28;20058;-77
2022/05/28 09:35:43;;;;;;;4.70;1.13;;;13.60;99.90;;;;;;4996711;28;20050;-81
2022/05/28 09:38:45;;;;;;;7.95;1.20;;;13.60;99.90;;;;;;4997904;28;20042;-77
2022/05/28 09:41:40;;;;;;;8.45;0.90;;;13.70;99.90;;;;;;4993086;28;20066;-72
2022/05/28 09:44:35;;;;;;;4.65;0.90;;;13.70;99.90;;;;;;4997622;28;20141;-74
2022/05/28 09:47:13;;;;;;;6.95;0.93;;;13.70;99.90;;;;;;4996361;28;20046;-73
2022/05/28 09:50:15;;;;;;;6.57;0.80;;;13.70;99.90;;;;;;4996378;28;20054;-77
2022/05/28 09:54:16;;;;;;;5.88;0.98;;;14.10;99.90;;;;;;4983951;28;20050;-77
2022/05/28 09:55:27;;;;;;;5.95;1.20;;;13.60;99.90;;;;;;4969479;28;20062;-83
2022/05/28 09:58:02;;;;;;;4.95;0.90;;;13.40;99.90;;;;;;4996456;28;20050;-80
2022/05/28 10:00:28;;;;;;;7.68;1.13;;;13.40;99.90;;;;;;4996481;28;20497;-74
2022/05/28 10:05:51;;;;;;;3.88;0.70;;;13.60;99.90;;;;;;4998064;28;20399;-70
2022/05/28 10:08:17;;;;;;;5.63;0.73;;;13.60;99.90;;;;;;4997136;28;20049;-81
2022/05/28 10:10:54;;;;;;;3.70;0.85;;;13.60;99.90;;;;;;4997448;28;20046;-83
2022/05/28 10:13:24;;;;;;;4.10;0.90;;;13.60;99.90;;;;;;4996563;28;20105;-83
2022/05/28 10:15:53;;;;;;;4.10;0.60;;;13.70;99.90;;;;;;4981254;28;20261;-81
2022/05/28 10:18:27;;;;;;;5.25;0.57;;;13.70;99.90;;;;;;4979882;28;20053;-80
2022/05/28 10:21:11;;;;;;;5.35;0.90;;;13.70;99.90;;;;;;4996780;28;20479;-75
2022/05/28 10:23:40;;;;;;;3.58;0.52;;;13.70;99.90;;;;;;4995816;28;20046;-77
2022/05/28 10:26:21;;;;;;;6.18;0.70;;;13.80;99.90;;;;;;4995803;28;20046;-80
2022/05/28 10:28:50;;;;;;;3.83;0.80;;;13.80;99.90;;;;;;4996344;28;20384;-78
2022/05/28 10:31:46;;;;;;;5.90;0.60;;;13.80;99.90;;;;;;4996800;28;20133;-78
2022/05/28 10:34:31;;;;;;;4.45;0.70;;;13.70;99.90;;;;;;4992051;28;20058;-74
2022/05/28 10:37:15;;;;;;;7.20;0.75;;;13.70;99.90;;;;;;4996778;28;20056;-76
2022/05/28 10:39:42;;;;;;;4.40;0.73;;;13.70;99.90;;;;;;4995153;28;20116;-81
2022/05/28 10:42:11;;;;;;;4.00;0.60;;;13.70;99.90;;;;;;4995597;28;20058;-78
2022/05/28 10:44:39;;;;;;;6.45;0.80;;;13.80;99.90;;;;;;4996052;28;20453;-73
2022/05/28 10:47:14;;;;;;;6.45;0.77;;;13.90;99.40;;;;;;5000689;28;20390;-87
2022/05/28 10:49:47;;;;;;;2.90;0.70;;;13.90;97.80;;;;;;4996189;28;20116;-79
2022/05/28 10:52:28;;;;;;;3.55;0.50;;;13.80;98.90;;;;;;4996069;28;20130;-79
2022/05/28 10:55:14;;;;;;;4.32;0.70;;;14.00;98.80;;;;;;4996414;28;20050;-77
2022/05/28 10:58:11;;;;;;;3.90;0.57;;;14.00;98.20;;;;;;4995359;28;20486;-80
2022/05/28 11:01:19;;;;;;;5.55;0.90;;;14.10;96.80;;;;;;4978360;28;20156;-81
2022/05/28 11:04:06;;;;;;;3.80;0.65;;;14.10;97.30;;;;;;4995748;28;20054;-75
2022/05/28 11:06:48;;;;;;;5.82;0.98;;;14.10;97.30;;;;;;4996236;28;20086;-83
2022/05/28 11:10:04;;;;;;;6.38;0.80;;;13.90;98.80;;;;;;4996628;28;20112;-77
2022/05/28 11:12:56;;;;;;;7.53;0.70;;;13.80;99.50;;;;;;4986703;28;20058;-80
2022/05/28 11:15:57;;;;;;;6.85;0.70;;;13.80;99.90;;;;;;4995642;28;20464;-83
2022/05/28 11:19:04;;;;;;;2.53;0.60;;;13.70;99.90;;;;;;4986634;28;20054;-75
2022/05/28 11:21:41;;;;;;;3.42;0.75;;;13.80;96.10;;;;;;4978698;28;20122;-77
2022/05/28 11:24:22;;;;;;;3.72;0.80;;;13.90;98.80;;;;;;4995710;28;20133;-78
2022/05/28 11:27:19;;;;;;;8.95;0.85;;;13.90;98.90;;;;;;4995848;28;20105;-80
2022/05/28 11:29:51;;;;;;;5.80;0.70;;;13.90;98.90;;;;;;4995628;28;20057;-77
2022/05/28 11:32:20;;;;;;;5.82;0.73;;;13.80;99.10;;;;;;4995090;28;20383;-80
2022/05/28 11:34:57;;;;;;;5.28;1.15;;;13.70;99.20;;;;;;4994826;28;20061;-75
2022/05/28 11:37:27;;;;;;;6.78;0.90;;;13.70;99.90;;;;;;4994740;28;20085;-85
2022/05/28 11:39:57;;;;;;;6.82;0.90;;;13.60;99.90;;;;;;4995047;28;20066;-76
2022/05/28 11:42:36;;;;;;;4.15;0.82;;;13.60;99.90;;;;;;4994264;28;20124;-83
2022/05/28 11:45:10;;;;;;;6.25;0.70;;;13.70;99.90;;;;;;4995486;28;20043;-79
2022/05/28 11:47:55;;;;;;;3.47;0.80;;;13.80;99.90;;;;;;4995463;28;20093;-87
2022/05/28 11:53:13;;;;;;;3.92;0.88;;;13.80;99.50;;;;;;4995252;28;20050;-82
2022/05/28 11:55:42;;;;;;;5.85;0.90;;;13.80;98.90;;;;;;4994618;28;20088;-79
2022/05/28 11:58:10;;;;;;;2.85;0.80;;;13.80;99.90;;;;;;4995281;28;20165;-78
2022/05/28 12:00:40;;;;;;;4.07;0.70;;;13.90;98.50;;;;;;4995121;28;20140;-77
2022/05/28 12:03:27;;;;;;;4.07;0.60;;;14.00;98.10;;;;;;4978567;28;20324;-74
2022/05/28 12:06:07;;;;;;;3.08;0.50;;;14.10;97.40;;;;;;4978286;28;20402;-76
2022/05/28 12:08:42;;;;;;;4.78;0.63;;;14.30;96.60;;;;;;4994240;28;20082;-83
2022/05/28 12:11:19;;;;;;;2.15;0.57;;;14.50;95.90;;;;;;4995521;28;20046;-83
2022/05/28 12:14:00;;;;;;;3.97;0.60;;;14.70;96.50;;;;;;4977931;28;20038;-83
2022/05/28 12:16:39;;;;;;;4.97;0.70;;;14.90;97.30;;;;;;4977819;28;20601;-81
2022/05/28 12:19:11;;;;;;;3.10;0.68;;;14.90;95.70;;;;;;4993956;28;20046;-76
2022/05/28 12:21:39;;;;;;;3.97;0.90;;;14.90;95.80;;;;;;4993899;28;20081;-81
2022/05/28 12:24:12;;;;;;;7.53;0.90;;;14.70;97.80;;;;;;4977812;28;20050;-77
2022/05/28 12:32:16;;;;;;;5.53;1.23;;;13.90;99.90;;;;;;4994940;28;20081;-81
2022/05/28 12:35:07;;;;;;;4.38;0.85;;;13.70;99.90;;;;;;4995450;28;20145;-77
2022/05/28 12:37:35;;;;;;;5.05;0.68;;;13.60;99.90;;;;;;4993528;28;20087;-77
2022/05/28 12:40:25;;;;;;;5.43;0.70;;;13.80;99.90;;;;;;4994094;28;20058;-77
2022/05/28 12:42:53;;;;;;;5.80;0.80;;;13.60;99.90;;;;;;4994280;28;20046;-79
2022/05/28 12:45:35;;;;;;;7.88;0.82;;;13.50;99.90;;;;;;4994510;28;20125;-82
2022/05/28 12:48:31;;;;;;;4.18;1.10;;;13.50;99.90;;;;;;4993947;28;20466;-81
2022/05/28 12:51:17;;;;;;;9.07;1.20;;;13.50;99.90;;;;;;4995183;28;20395;-76
2022/05/28 12:53:56;;;;;;;7.93;1.20;;;13.50;99.90;;;;;;4993713;28;20137;-83
2022/05/28 12:56:33;;;;;;;6.25;1.23;;;13.40;99.90;;;;;;4993823;28;20474;-72
2022/05/28 12:59:13;;;;;;;8.00;1.20;;;13.60;99.90;;;;;;4993361;28;20104;-79
2022/05/28 13:01:54;;;;;;;4.75;1.10;;;13.30;99.90;;;;;;4993306;28;20061;-81
2022/05/28 13:04:20;;;;;;;6.60;1.10;;;13.50;99.90;;;;;;4994352;28;20086;-84
2022/05/28 13:06:53;;;;;;;4.43;0.82;;;13.60;99.90;;;;;;4995106;28;20162;-82
2022/05/28 13:09:24;;;;;;;;;;;13.70;99.90;;;;;;4995305;28;20085;-74
2022/05/28 13:12:02;;;;;;;5.40;0.82;;;13.80;99.90;;;;;;4994661;28;19964;-74
2022/05/28 13:14:53;;;;;;;4.38;1.00;;;13.90;99.90;;;;;;4994095;28;20054;-75
2022/05/28 13:17:47;;;;;;;3.35;0.73;;;14.00;99.90;;;;;;4993131;28;20124;-75
2022/05/28 13:20:39;;;;;;;3.85;0.60;;;14.00;99.90;;;;;;4977927;28;20491;-80
2022/05/28 13:23:20;;;;;;;5.65;1.17;;;14.10;99.90;;;;;;4994221;28;20050;-80
2022/05/28 13:26:20;;;;;;;2.90;0.88;;;14.20;99.90;;;;;;4993170;28;20474;-85